Decoded Metar for KMPV (MONTPELIER in VT, USA) (IATA:MPV) | Meteo·Mobile Aviation Weather
aviador You're here:

KMPV Decoded Metar

MONTPELIER in VT, USA
Report Time2018-09-23 10:51:00
UTC Time2018-09-23 11:53:44
Flight Rules lifr LIFR
Wind180° at 03 kt
W.Decomp.*RWY 17: 2.7 kt HW 1.3 kt RCW
RWY 23: 2.5 kt HW 1.7 kt LCW
W.Rank180° ranks 2
Current wind is below 180° avg. (7.1)
Visibility402 m
Phenomena:Fog
Clouds:N/A
Ceiling100 ft
Temp02°C (ISA -11)
Dew Point02°C (100% RH)
AAT-0.8°C
QNH1026 hPa
Density Alt-522 ft
Elevation1,125 ft
Report Wrong Elevation
Raw Report
KMPV 231051Z AUTO 18003KT 1/4SM FG VV001 02/02 A3029 RMK AO2
SLP267 T00220022 $=

Extra information for KMPV:More info

Metar Taf Metar & Taf Last 4 Metars F.Rules Stats Wind Profile Meteogram Temp Stats Airport Information Weather charts Add Link Nearby VenuesMetar ALERT Operation Metar Decoded Social comments

AIRNAV info for KMPV